Terminal Aerodrome Forecast
Issued by NWS

Home | Current Version | Previous Version | Text Only | Print | Product List | Glossary On
Versions: 1 2 3 4 5 6 7 8 9 10 11 12 13 14 15 16 17 18 19
045
FTUS43 KMPX 241735
TAFRWF
TAF
KRWF 241735Z 2418/2518 21007KT P6SM SCT025 BKN250
     FM250000 14005KT P6SM BKN250
     FM251100 11004KT 5SM -SHRA VCTS OVC050CB
     FM251600 13008KT P6SM OVC035=

USA.gov is the U.S. government's official web portal to all federal, state and local government web resources and services.